sensor_id;sensor_type;location;lat;lon;timestamp;P1;durP1;ratioP1;P2;durP2;ratioP2
4986;SDS011;12674;51.500;7.552;2022-08-01T00:00:54;23.00;;;20.10;;
4986;SDS011;12674;51.500;7.552;2022-08-01T00:02:57;30.20;;;21.95;;
4986;SDS011;12674;51.500;7.552;2022-08-01T00:05:00;31.10;;;24.33;;
4986;SDS011;12674;51.500;7.552;2022-08-01T00:07:04;26.38;;;23.50;;
4986;SDS011;12674;51.500;7.552;2022-08-01T00:09:09;27.48;;;23.85;;
4986;SDS011;12674;51.500;7.552;2022-08-01T00:11:24;29.63;;;21.65;;
4986;SDS011;12674;51.500;7.552;2022-08-01T00:13:27;27.27;;;21.77;;
4986;SDS011;12674;51.500;7.552;2022-08-01T00:15:31;34.20;;;23.95;;
4986;SDS011;12674;51.500;7.552;2022-08-01T00:17:35;26.13;;;22.63;;
4986;SDS011;12674;51.500;7.552;2022-08-01T00:19:38;32.30;;;26.55;;
4986;SDS011;12674;51.500;7.552;2022-08-01T00:21:41;32.33;;;24.73;;
4986;SDS011;12674;51.500;7.552;2022-08-01T00:24:02;30.10;;;23.77;;
4986;SDS011;12674;51.500;7.552;2022-08-01T00:26:10;30.88;;;24.65;;
4986;SDS011;12674;51.500;7.552;2022-08-01T00:28:13;34.15;;;24.65;;
4986;SDS011;12674;51.500;7.552;2022-08-01T00:30:16;43.63;;;28.65;;
4986;SDS011;12674;51.500;7.552;2022-08-01T00:34:44;34.15;;;26.13;;
4986;SDS011;12674;51.500;7.552;2022-08-01T00:36:47;37.03;;;29.13;;
4986;SDS011;12674;51.500;7.552;2022-08-01T00:38:50;34.95;;;27.77;;
4986;SDS011;12674;51.500;7.552;2022-08-01T00:40:53;33.97;;;25.27;;
4986;SDS011;12674;51.500;7.552;2022-08-01T00:42:57;32.60;;;26.30;;
4986;SDS011;12674;51.500;7.552;2022-08-01T00:45:00;35.80;;;25.75;;
4986;SDS011;12674;51.500;7.552;2022-08-01T00:47:04;35.28;;;28.00;;
4986;SDS011;12674;51.500;7.552;2022-08-01T00:49:07;31.50;;;24.70;;
4986;SDS011;12674;51.500;7.552;2022-08-01T00:51:11;28.38;;;23.08;;
4986;SDS011;12674;51.500;7.552;2022-08-01T00:53:15;32.55;;;24.05;;
4986;SDS011;12674;51.500;7.552;2022-08-01T00:55:19;26.55;;;22.40;;
4986;SDS011;12674;51.500;7.552;2022-08-01T00:57:22;37.55;;;27.00;;
4986;SDS011;12674;51.500;7.552;2022-08-01T00:59:47;32.22;;;25.10;;
4986;SDS011;12674;51.500;7.552;2022-08-01T01:01:50;31.42;;;24.85;;
4986;SDS011;12674;51.500;7.552;2022-08-01T01:04:02;31.90;;;25.83;;
4986;SDS011;12674;51.500;7.552;2022-08-01T01:06:13;31.67;;;25.45;;
4986;SDS011;12674;51.500;7.552;2022-08-01T01:08:31;28.50;;;25.42;;
4986;SDS011;12674;51.500;7.552;2022-08-01T01:10:42;36.92;;;22.95;;
4986;SDS011;12674;51.500;7.552;2022-08-01T01:12:50;30.42;;;25.85;;
4986;SDS011;12674;51.500;7.552;2022-08-01T01:15:02;31.42;;;26.63;;
4986;SDS011;12674;51.500;7.552;2022-08-01T01:17:07;28.50;;;24.63;;
4986;SDS011;12674;51.500;7.552;2022-08-01T01:19:10;33.60;;;26.08;;
4986;SDS011;12674;51.500;7.552;2022-08-01T01:21:38;30.67;;;25.17;;
4986;SDS011;12674;51.500;7.552;2022-08-01T01:23:50;31.30;;;25.60;;
4986;SDS011;12674;51.500;7.552;2022-08-01T01:28:27;41.67;;;29.75;;
4986;SDS011;12674;51.500;7.552;2022-08-01T01:30:35;33.22;;;27.70;;
4986;SDS011;12674;51.500;7.552;2022-08-01T01:32:41;45.53;;;29.58;;
4986;SDS011;12674;51.500;7.552;2022-08-01T01:34:46;44.78;;;30.00;;
4986;SDS011;12674;51.500;7.552;2022-08-01T01:36:51;39.58;;;28.65;;
4986;SDS011;12674;51.500;7.552;2022-08-01T01:38:55;34.92;;;29.00;;
4986;SDS011;12674;51.500;7.552;2022-08-01T01:40:58;42.47;;;30.65;;
4986;SDS011;12674;51.500;7.552;2022-08-01T01:43:02;38.42;;;27.98;;
4986;SDS011;12674;51.500;7.552;2022-08-01T01:45:06;40.85;;;29.05;;
4986;SDS011;12674;51.500;7.552;2022-08-01T01:47:11;38.60;;;28.48;;
4986;SDS011;12674;51.500;7.552;2022-08-01T01:49:15;41.38;;;29.30;;
4986;SDS011;12674;51.500;7.552;2022-08-01T01:51:22;36.70;;;28.50;;
4986;SDS011;12674;51.500;7.552;2022-08-01T01:53:28;36.45;;;30.73;;
4986;SDS011;12674;51.500;7.552;2022-08-01T01:55:31;34.70;;;29.10;;
4986;SDS011;12674;51.500;7.552;2022-08-01T01:57:50;38.15;;;30.27;;
4986;SDS011;12674;51.500;7.552;2022-08-01T01:59:55;47.60;;;33.67;;
4986;SDS011;12674;51.500;7.552;2022-08-01T02:01:59;40.05;;;31.20;;
4986;SDS011;12674;51.500;7.552;2022-08-01T02:04:10;40.92;;;33.55;;
4986;SDS011;12674;51.500;7.552;2022-08-01T02:06:14;48.10;;;35.45;;
4986;SDS011;12674;51.500;7.552;2022-08-01T02:08:18;39.63;;;35.05;;
4986;SDS011;12674;51.500;7.552;2022-08-01T02:10:21;44.63;;;32.67;;
4986;SDS011;12674;51.500;7.552;2022-08-01T02:12:29;43.75;;;36.58;;
4986;SDS011;12674;51.500;7.552;2022-08-01T02:14:37;46.65;;;38.55;;
4986;SDS011;12674;51.500;7.552;2022-08-01T02:16:42;42.15;;;34.28;;
4986;SDS011;12674;51.500;7.552;2022-08-01T02:18:46;51.20;;;37.70;;
4986;SDS011;12674;51.500;7.552;2022-08-01T02:20:51;38.58;;;31.90;;
4986;SDS011;12674;51.500;7.552;2022-08-01T02:22:56;41.35;;;34.72;;
4986;SDS011;12674;51.500;7.552;2022-08-01T02:25:02;37.97;;;33.85;;
4986;SDS011;12674;51.500;7.552;2022-08-01T02:27:07;48.90;;;34.53;;
4986;SDS011;12674;51.500;7.552;2022-08-01T02:29:13;42.70;;;34.17;;
4986;SDS011;12674;51.500;7.552;2022-08-01T02:31:19;45.25;;;31.77;;
4986;SDS011;12674;51.500;7.552;2022-08-01T02:33:24;43.95;;;33.42;;
4986;SDS011;12674;51.500;7.552;2022-08-01T02:35:33;47.80;;;33.50;;
4986;SDS011;12674;51.500;7.552;2022-08-01T02:37:59;50.75;;;30.63;;
4986;SDS011;12674;51.500;7.552;2022-08-01T02:40:04;36.17;;;29.88;;
4986;SDS011;12674;51.500;7.552;2022-08-01T02:42:14;31.30;;;27.88;;
4986;SDS011;12674;51.500;7.552;2022-08-01T02:44:20;33.65;;;27.92;;
4986;SDS011;12674;51.500;7.552;2022-08-01T02:46:28;33.75;;;28.13;;
4986;SDS011;12674;51.500;7.552;2022-08-01T02:48:34;33.30;;;27.08;;
4986;SDS011;12674;51.500;7.552;2022-08-01T02:50:39;36.78;;;24.42;;
4986;SDS011;12674;51.500;7.552;2022-08-01T02:52:45;32.70;;;26.15;;
4986;SDS011;12674;51.500;7.552;2022-08-01T02:54:53;33.97;;;24.67;;
4986;SDS011;12674;51.500;7.552;2022-08-01T02:56:58;35.80;;;26.13;;
4986;SDS011;12674;51.500;7.552;2022-08-01T02:59:07;32.50;;;25.52;;
4986;SDS011;12674;51.500;7.552;2022-08-01T03:01:14;40.70;;;26.10;;
4986;SDS011;12674;51.500;7.552;2022-08-01T03:03:20;42.67;;;26.58;;
4986;SDS011;12674;51.500;7.552;2022-08-01T03:05:24;33.42;;;25.10;;
4986;SDS011;12674;51.500;7.552;2022-08-01T03:07:28;30.45;;;25.75;;
4986;SDS011;12674;51.500;7.552;2022-08-01T03:09:36;34.15;;;27.02;;
4986;SDS011;12674;51.500;7.552;2022-08-01T03:11:42;33.30;;;28.00;;
4986;SDS011;12674;51.500;7.552;2022-08-01T03:13:45;28.30;;;24.92;;
4986;SDS011;12674;51.500;7.552;2022-08-01T03:15:49;36.58;;;27.92;;
4986;SDS011;12674;51.500;7.552;2022-08-01T03:17:53;34.65;;;28.02;;
4986;SDS011;12674;51.500;7.552;2022-08-01T03:19:58;34.75;;;28.52;;
4986;SDS011;12674;51.500;7.552;2022-08-01T03:22:01;34.45;;;28.45;;
4986;SDS011;12674;51.500;7.552;2022-08-01T03:24:07;39.53;;;30.27;;
4986;SDS011;12674;51.500;7.552;2022-08-01T03:26:12;40.95;;;30.88;;
4986;SDS011;12674;51.500;7.552;2022-08-01T03:28:17;35.85;;;27.70;;
4986;SDS011;12674;51.500;7.552;2022-08-01T03:30:21;35.70;;;29.90;;
4986;SDS011;12674;51.500;7.552;2022-08-01T03:32:25;37.50;;;26.73;;
4986;SDS011;12674;51.500;7.552;2022-08-01T03:34:29;33.45;;;26.77;;
4986;SDS011;12674;51.500;7.552;2022-08-01T03:36:33;39.72;;;28.02;;
4986;SDS011;12674;51.500;7.552;2022-08-01T03:38:37;36.58;;;28.88;;
4986;SDS011;12674;51.500;7.552;2022-08-01T03:40:43;32.50;;;24.65;;
4986;SDS011;12674;51.500;7.552;2022-08-01T03:42:52;29.83;;;23.58;;
4986;SDS011;12674;51.500;7.552;2022-08-01T03:44:58;25.17;;;19.60;;
4986;SDS011;12674;51.500;7.552;2022-08-01T03:47:06;24.88;;;19.00;;
4986;SDS011;12674;51.500;7.552;2022-08-01T03:49:11;24.67;;;18.58;;
4986;SDS011;12674;51.500;7.552;2022-08-01T03:51:17;25.80;;;18.23;;
4986;SDS011;12674;51.500;7.552;2022-08-01T03:53:22;23.25;;;18.38;;
4986;SDS011;12674;51.500;7.552;2022-08-01T03:55:26;25.98;;;17.38;;
4986;SDS011;12674;51.500;7.552;2022-08-01T03:57:29;29.35;;;18.40;;
4986;SDS011;12674;51.500;7.552;2022-08-01T03:59:37;26.95;;;16.45;;
4986;SDS011;12674;51.500;7.552;2022-08-01T04:01:42;23.75;;;18.50;;
4986;SDS011;12674;51.500;7.552;2022-08-01T04:03:46;22.40;;;16.90;;
4986;SDS011;12674;51.500;7.552;2022-08-01T04:05:49;27.48;;;18.00;;
4986;SDS011;12674;51.500;7.552;2022-08-01T04:07:52;23.50;;;16.10;;
4986;SDS011;12674;51.500;7.552;2022-08-01T04:09:57;25.45;;;17.92;;
4986;SDS011;12674;51.500;7.552;2022-08-01T04:12:00;24.67;;;16.65;;
4986;SDS011;12674;51.500;7.552;2022-08-01T04:14:12;27.05;;;17.75;;
4986;SDS011;12674;51.500;7.552;2022-08-01T04:16:15;23.80;;;17.67;;
4986;SDS011;12674;51.500;7.552;2022-08-01T04:18:20;22.65;;;17.40;;
4986;SDS011;12674;51.500;7.552;2022-08-01T04:20:23;20.45;;;16.60;;
4986;SDS011;12674;51.500;7.552;2022-08-01T04:22:26;25.58;;;17.08;;
4986;SDS011;12674;51.500;7.552;2022-08-01T04:24:29;22.20;;;17.23;;
4986;SDS011;12674;51.500;7.552;2022-08-01T04:26:34;31.75;;;18.92;;
4986;SDS011;12674;51.500;7.552;2022-08-01T04:28:37;36.08;;;17.75;;
4986;SDS011;12674;51.500;7.552;2022-08-01T04:30:42;28.88;;;16.17;;
4986;SDS011;12674;51.500;7.552;2022-08-01T04:32:47;24.33;;;16.27;;
4986;SDS011;12674;51.500;7.552;2022-08-01T04:34:52;21.10;;;16.10;;
4986;SDS011;12674;51.500;7.552;2022-08-01T04:36:58;23.83;;;17.00;;
4986;SDS011;12674;51.500;7.552;2022-08-01T04:39:01;19.83;;;16.25;;
4986;SDS011;12674;51.500;7.552;2022-08-01T04:41:05;21.20;;;15.60;;
4986;SDS011;12674;51.500;7.552;2022-08-01T04:43:13;24.40;;;16.35;;
4986;SDS011;12674;51.500;7.552;2022-08-01T04:45:17;21.95;;;15.90;;
4986;SDS011;12674;51.500;7.552;2022-08-01T04:47:20;25.85;;;16.17;;
4986;SDS011;12674;51.500;7.552;2022-08-01T04:49:23;24.38;;;14.93;;
4986;SDS011;12674;51.500;7.552;2022-08-01T04:51:28;22.98;;;15.57;;
4986;SDS011;12674;51.500;7.552;2022-08-01T04:53:31;21.77;;;14.07;;
4986;SDS011;12674;51.500;7.552;2022-08-01T04:55:34;24.65;;;14.05;;
4986;SDS011;12674;51.500;7.552;2022-08-01T04:57:39;24.77;;;14.88;;
4986;SDS011;12674;51.500;7.552;2022-08-01T04:59:43;24.42;;;15.98;;
4986;SDS011;12674;51.500;7.552;2022-08-01T05:01:48;24.05;;;15.27;;
4986;SDS011;12674;51.500;7.552;2022-08-01T05:03:53;18.77;;;14.95;;
4986;SDS011;12674;51.500;7.552;2022-08-01T05:05:56;22.15;;;14.57;;
4986;SDS011;12674;51.500;7.552;2022-08-01T05:08:00;20.48;;;14.77;;
4986;SDS011;12674;51.500;7.552;2022-08-01T05:10:03;24.08;;;14.82;;
4986;SDS011;12674;51.500;7.552;2022-08-01T05:12:07;24.27;;;15.82;;
4986;SDS011;12674;51.500;7.552;2022-08-01T05:14:12;27.63;;;16.00;;
4986;SDS011;12674;51.500;7.552;2022-08-01T05:16:15;19.98;;;13.40;;
4986;SDS011;12674;51.500;7.552;2022-08-01T05:18:18;22.05;;;15.32;;
4986;SDS011;12674;51.500;7.552;2022-08-01T05:20:28;20.75;;;13.35;;
4986;SDS011;12674;51.500;7.552;2022-08-01T05:22:31;17.67;;;14.13;;
4986;SDS011;12674;51.500;7.552;2022-08-01T05:24:36;18.08;;;11.82;;
4986;SDS011;12674;51.500;7.552;2022-08-01T05:26:40;24.35;;;14.45;;
4986;SDS011;12674;51.500;7.552;2022-08-01T05:28:44;16.13;;;12.18;;
4986;SDS011;12674;51.500;7.552;2022-08-01T05:30:47;15.15;;;12.57;;
4986;SDS011;12674;51.500;7.552;2022-08-01T05:32:50;25.25;;;15.05;;
4986;SDS011;12674;51.500;7.552;2022-08-01T05:34:53;16.00;;;12.75;;
4986;SDS011;12674;51.500;7.552;2022-08-01T05:36:56;22.92;;;14.52;;
4986;SDS011;12674;51.500;7.552;2022-08-01T05:38:59;22.17;;;16.00;;
4986;SDS011;12674;51.500;7.552;2022-08-01T05:41:09;22.48;;;16.27;;
4986;SDS011;12674;51.500;7.552;2022-08-01T05:43:12;22.88;;;17.33;;
4986;SDS011;12674;51.500;7.552;2022-08-01T05:45:15;27.33;;;17.73;;
4986;SDS011;12674;51.500;7.552;2022-08-01T05:47:18;34.85;;;20.83;;
4986;SDS011;12674;51.500;7.552;2022-08-01T05:49:22;23.45;;;19.52;;
4986;SDS011;12674;51.500;7.552;2022-08-01T05:51:25;33.08;;;22.50;;
4986;SDS011;12674;51.500;7.552;2022-08-01T05:53:28;26.83;;;19.15;;
4986;SDS011;12674;51.500;7.552;2022-08-01T05:55:31;26.13;;;18.70;;
4986;SDS011;12674;51.500;7.552;2022-08-01T05:57:35;22.83;;;17.35;;
4986;SDS011;12674;51.500;7.552;2022-08-01T05:59:41;22.77;;;17.33;;
4986;SDS011;12674;51.500;7.552;2022-08-01T06:01:44;25.88;;;17.08;;
4986;SDS011;12674;51.500;7.552;2022-08-01T06:03:47;22.50;;;16.38;;
4986;SDS011;12674;51.500;7.552;2022-08-01T06:05:51;26.23;;;17.83;;
4986;SDS011;12674;51.500;7.552;2022-08-01T06:07:54;19.50;;;16.08;;
4986;SDS011;12674;51.500;7.552;2022-08-01T06:09:57;28.90;;;17.70;;
4986;SDS011;12674;51.500;7.552;2022-08-01T06:12:00;23.15;;;17.75;;
4986;SDS011;12674;51.500;7.552;2022-08-01T06:14:06;21.02;;;16.13;;
4986;SDS011;12674;51.500;7.552;2022-08-01T06:16:09;21.35;;;14.82;;
4986;SDS011;12674;51.500;7.552;2022-08-01T06:18:13;26.95;;;18.67;;
4986;SDS011;12674;51.500;7.552;2022-08-01T06:20:16;26.02;;;16.20;;
4986;SDS011;12674;51.500;7.552;2022-08-01T06:22:19;18.88;;;14.82;;
4986;SDS011;12674;51.500;7.552;2022-08-01T06:24:22;28.77;;;14.43;;
4986;SDS011;12674;51.500;7.552;2022-08-01T06:26:25;24.67;;;14.40;;
4986;SDS011;12674;51.500;7.552;2022-08-01T06:28:28;15.65;;;13.38;;
4986;SDS011;12674;51.500;7.552;2022-08-01T06:30:32;17.20;;;13.93;;
4986;SDS011;12674;51.500;7.552;2022-08-01T06:32:36;17.63;;;13.15;;
4986;SDS011;12674;51.500;7.552;2022-08-01T06:34:39;18.27;;;12.77;;
4986;SDS011;12674;51.500;7.552;2022-08-01T06:36:42;14.43;;;12.23;;
4986;SDS011;12674;51.500;7.552;2022-08-01T06:38:45;17.48;;;11.25;;
4986;SDS011;12674;51.500;7.552;2022-08-01T06:40:48;21.65;;;11.35;;
4986;SDS011;12674;51.500;7.552;2022-08-01T06:42:54;13.32;;;9.85;;
4986;SDS011;12674;51.500;7.552;2022-08-01T06:44:57;12.38;;;8.40;;
4986;SDS011;12674;51.500;7.552;2022-08-01T06:47:01;14.70;;;9.90;;
4986;SDS011;12674;51.500;7.552;2022-08-01T06:49:04;13.20;;;9.18;;
4986;SDS011;12674;51.500;7.552;2022-08-01T06:51:10;14.60;;;9.32;;
4986;SDS011;12674;51.500;7.552;2022-08-01T06:53:16;11.73;;;10.05;;
4986;SDS011;12674;51.500;7.552;2022-08-01T06:55:19;12.50;;;8.13;;
4986;SDS011;12674;51.500;7.552;2022-08-01T06:57:22;12.43;;;9.00;;
4986;SDS011;12674;51.500;7.552;2022-08-01T06:59:25;12.85;;;9.13;;
4986;SDS011;12674;51.500;7.552;2022-08-01T07:01:29;11.93;;;7.97;;
4986;SDS011;12674;51.500;7.552;2022-08-01T07:03:37;12.30;;;7.47;;
4986;SDS011;12674;51.500;7.552;2022-08-01T07:05:55;11.32;;;7.63;;
4986;SDS011;12674;51.500;7.552;2022-08-01T07:07:58;12.35;;;8.10;;
4986;SDS011;12674;51.500;7.552;2022-08-01T07:10:01;14.68;;;9.27;;
4986;SDS011;12674;51.500;7.552;2022-08-01T07:12:04;13.30;;;8.00;;
4986;SDS011;12674;51.500;7.552;2022-08-01T07:14:08;15.43;;;8.57;;
4986;SDS011;12674;51.500;7.552;2022-08-01T07:16:11;15.55;;;9.45;;
4986;SDS011;12674;51.500;7.552;2022-08-01T07:18:14;10.13;;;8.15;;
4986;SDS011;12674;51.500;7.552;2022-08-01T07:20:19;13.32;;;8.77;;
4986;SDS011;12674;51.500;7.552;2022-08-01T07:22:22;10.93;;;7.90;;
4986;SDS011;12674;51.500;7.552;2022-08-01T07:24:27;11.45;;;7.45;;
4986;SDS011;12674;51.500;7.552;2022-08-01T07:26:30;11.90;;;8.25;;
4986;SDS011;12674;51.500;7.552;2022-08-01T07:28:33;13.20;;;7.30;;
4986;SDS011;12674;51.500;7.552;2022-08-01T07:30:44;7.70;;;6.70;;
4986;SDS011;12674;51.500;7.552;2022-08-01T07:32:47;8.55;;;6.60;;
4986;SDS011;12674;51.500;7.552;2022-08-01T07:34:52;9.82;;;5.93;;
4986;SDS011;12674;51.500;7.552;2022-08-01T07:36:57;8.30;;;6.40;;
4986;SDS011;12674;51.500;7.552;2022-08-01T07:39:00;11.80;;;7.20;;
4986;SDS011;12674;51.500;7.552;2022-08-01T07:41:03;11.45;;;6.28;;
4986;SDS011;12674;51.500;7.552;2022-08-01T07:43:06;7.82;;;6.40;;
4986;SDS011;12674;51.500;7.552;2022-08-01T07:45:09;9.35;;;6.90;;
4986;SDS011;12674;51.500;7.552;2022-08-01T07:47:12;11.07;;;7.60;;
4986;SDS011;12674;51.500;7.552;2022-08-01T07:49:16;7.85;;;6.93;;
4986;SDS011;12674;51.500;7.552;2022-08-01T07:51:19;9.10;;;7.18;;
4986;SDS011;12674;51.500;7.552;2022-08-01T07:53:24;10.38;;;6.53;;
4986;SDS011;12674;51.500;7.552;2022-08-01T07:55:27;7.07;;;6.03;;
4986;SDS011;12674;51.500;7.552;2022-08-01T07:57:30;13.88;;;7.03;;
4986;SDS011;12674;51.500;7.552;2022-08-01T07:59:33;10.80;;;6.30;;
4986;SDS011;12674;51.500;7.552;2022-08-01T08:01:36;7.72;;;5.90;;
4986;SDS011;12674;51.500;7.552;2022-08-01T08:03:39;9.57;;;7.18;;
4986;SDS011;12674;51.500;7.552;2022-08-01T08:05:42;10.48;;;7.30;;
4986;SDS011;12674;51.500;7.552;2022-08-01T08:08:00;12.38;;;7.47;;
4986;SDS011;12674;51.500;7.552;2022-08-01T08:10:05;10.23;;;7.35;;
4986;SDS011;12674;51.500;7.552;2022-08-01T08:12:08;8.30;;;7.22;;
4986;SDS011;12674;51.500;7.552;2022-08-01T08:14:12;7.97;;;6.35;;
4986;SDS011;12674;51.500;7.552;2022-08-01T08:16:15;8.18;;;6.78;;
4986;SDS011;12674;51.500;7.552;2022-08-01T08:18:19;11.88;;;6.78;;
4986;SDS011;12674;51.500;7.552;2022-08-01T08:20:22;9.00;;;5.93;;
4986;SDS011;12674;51.500;7.552;2022-08-01T08:22:26;7.53;;;6.80;;
4986;SDS011;12674;51.500;7.552;2022-08-01T08:24:29;6.07;;;5.40;;
4986;SDS011;12674;51.500;7.552;2022-08-01T08:26:33;7.47;;;5.30;;
4986;SDS011;12674;51.500;7.552;2022-08-01T08:28:36;6.30;;;5.70;;
4986;SDS011;12674;51.500;7.552;2022-08-01T08:30:41;8.88;;;5.43;;
4986;SDS011;12674;51.500;7.552;2022-08-01T08:32:44;6.40;;;5.38;;
4986;SDS011;12674;51.500;7.552;2022-08-01T08:34:47;7.90;;;4.68;;
4986;SDS011;12674;51.500;7.552;2022-08-01T08:36:50;4.30;;;4.00;;
4986;SDS011;12674;51.500;7.552;2022-08-01T08:38:54;4.90;;;4.50;;
4986;SDS011;12674;51.500;7.552;2022-08-01T08:40:57;5.50;;;4.95;;
4986;SDS011;12674;51.500;7.552;2022-08-01T08:43:01;15.30;;;5.40;;
4986;SDS011;12674;51.500;7.552;2022-08-01T08:45:06;7.32;;;4.90;;
4986;SDS011;12674;51.500;7.552;2022-08-01T08:47:13;4.32;;;3.92;;
4986;SDS011;12674;51.500;7.552;2022-08-01T08:49:21;7.68;;;3.63;;
4986;SDS011;12674;51.500;7.552;2022-08-01T08:51:26;5.40;;;3.92;;
4986;SDS011;12674;51.500;7.552;2022-08-01T08:53:29;3.90;;;3.50;;
4986;SDS011;12674;51.500;7.552;2022-08-01T08:55:35;5.05;;;3.40;;
4986;SDS011;12674;51.500;7.552;2022-08-01T08:57:57;5.43;;;3.67;;
4986;SDS011;12674;51.500;7.552;2022-08-01T09:00:03;3.20;;;2.90;;
4986;SDS011;12674;51.500;7.552;2022-08-01T09:02:09;3.45;;;3.03;;
4986;SDS011;12674;51.500;7.552;2022-08-01T09:04:14;3.85;;;3.25;;
4986;SDS011;12674;51.500;7.552;2022-08-01T09:06:23;2.95;;;2.75;;
4986;SDS011;12674;51.500;7.552;2022-08-01T09:08:28;2.63;;;2.35;;
4986;SDS011;12674;51.500;7.552;2022-08-01T09:10:30;2.92;;;2.58;;
4986;SDS011;12674;51.500;7.552;2022-08-01T09:12:36;3.75;;;2.95;;
4986;SDS011;12674;51.500;7.552;2022-08-01T09:14:46;2.83;;;2.53;;
4986;SDS011;12674;51.500;7.552;2022-08-01T09:17:00;3.28;;;2.75;;
4986;SDS011;12674;51.500;7.552;2022-08-01T09:19:09;2.38;;;2.17;;
4986;SDS011;12674;51.500;7.552;2022-08-01T09:21:20;2.28;;;2.08;;
4986;SDS011;12674;51.500;7.552;2022-08-01T09:23:31;2.00;;;1.80;;
4986;SDS011;12674;51.500;7.552;2022-08-01T09:25:49;2.92;;;2.10;;
4986;SDS011;12674;51.500;7.552;2022-08-01T09:28:02;3.88;;;2.13;;
4986;SDS011;12674;51.500;7.552;2022-08-01T09:30:08;3.30;;;2.58;;
4986;SDS011;12674;51.500;7.552;2022-08-01T09:32:13;2.20;;;2.00;;
4986;SDS011;12674;51.500;7.552;2022-08-01T09:34:25;2.22;;;1.67;;
4986;SDS011;12674;51.500;7.552;2022-08-01T09:36:44;1.95;;;1.80;;
4986;SDS011;12674;51.500;7.552;2022-08-01T09:38:54;3.70;;;2.17;;
4986;SDS011;12674;51.500;7.552;2022-08-01T09:40:58;4.78;;;2.17;;
4986;SDS011;12674;51.500;7.552;2022-08-01T09:43:10;5.25;;;2.50;;
4986;SDS011;12674;51.500;7.552;2022-08-01T09:47:45;4.32;;;1.88;;
4986;SDS011;12674;51.500;7.552;2022-08-01T09:49:52;2.50;;;2.03;;
4986;SDS011;12674;51.500;7.552;2022-08-01T09:52:10;2.35;;;2.08;;
4986;SDS011;12674;51.500;7.552;2022-08-01T09:54:14;2.25;;;1.73;;
4986;SDS011;12674;51.500;7.552;2022-08-01T09:56:35;1.60;;;1.50;;
4986;SDS011;12674;51.500;7.552;2022-08-01T09:58:55;4.90;;;2.40;;
4986;SDS011;12674;51.500;7.552;2022-08-01T10:01:03;3.60;;;2.00;;
4986;SDS011;12674;51.500;7.552;2022-08-01T10:03:20;1.70;;;1.60;;
4986;SDS011;12674;51.500;7.552;2022-08-01T10:05:30;3.50;;;2.30;;
4986;SDS011;12674;51.500;7.552;2022-08-01T10:10:08;3.38;;;1.60;;
4986;SDS011;12674;51.500;7.552;2022-08-01T10:12:13;3.45;;;1.52;;
4986;SDS011;12674;51.500;7.552;2022-08-01T10:14:18;1.60;;;1.50;;
4986;SDS011;12674;51.500;7.552;2022-08-01T10:16:21;1.40;;;1.30;;
4986;SDS011;12674;51.500;7.552;2022-08-01T10:18:27;1.42;;;1.25;;
4986;SDS011;12674;51.500;7.552;2022-08-01T10:20:31;1.20;;;1.15;;
4986;SDS011;12674;51.500;7.552;2022-08-01T10:22:38;4.32;;;1.27;;
4986;SDS011;12674;51.500;7.552;2022-08-01T10:24:42;2.20;;;1.50;;
4986;SDS011;12674;51.500;7.552;2022-08-01T10:26:48;2.40;;;1.10;;
4986;SDS011;12674;51.500;7.552;2022-08-01T10:28:53;1.33;;;1.23;;
4986;SDS011;12674;51.500;7.552;2022-08-01T10:30:56;1.35;;;1.25;;
4986;SDS011;12674;51.500;7.552;2022-08-01T10:33:00;2.17;;;1.30;;
4986;SDS011;12674;51.500;7.552;2022-08-01T10:35:05;2.58;;;0.88;;
4986;SDS011;12674;51.500;7.552;2022-08-01T10:37:15;1.85;;;1.08;;
4986;SDS011;12674;51.500;7.552;2022-08-01T10:39:19;1.17;;;1.00;;
4986;SDS011;12674;51.500;7.552;2022-08-01T10:41:24;2.05;;;1.00;;
4986;SDS011;12674;51.500;7.552;2022-08-01T10:43:27;1.45;;;1.15;;
4986;SDS011;12674;51.500;7.552;2022-08-01T10:45:33;1.42;;;1.05;;
4986;SDS011;12674;51.500;7.552;2022-08-01T10:47:38;3.90;;;1.17;;
4986;SDS011;12674;51.500;7.552;2022-08-01T10:49:53;2.00;;;1.17;;
4986;SDS011;12674;51.500;7.552;2022-08-01T10:52:02;1.38;;;0.90;;
4986;SDS011;12674;51.500;7.552;2022-08-01T10:54:06;1.15;;;1.05;;
4986;SDS011;12674;51.500;7.552;2022-08-01T10:56:10;1.10;;;1.00;;
4986;SDS011;12674;51.500;7.552;2022-08-01T10:58:20;3.83;;;0.93;;
4986;SDS011;12674;51.500;7.552;2022-08-01T11:00:26;0.85;;;0.85;;
4986;SDS011;12674;51.500;7.552;2022-08-01T11:02:31;3.15;;;1.08;;
4986;SDS011;12674;51.500;7.552;2022-08-01T11:04:41;1.25;;;1.15;;
4986;SDS011;12674;51.500;7.552;2022-08-01T11:06:52;2.40;;;1.05;;
4986;SDS011;12674;51.500;7.552;2022-08-01T11:08:58;1.60;;;1.30;;
4986;SDS011;12674;51.500;7.552;2022-08-01T11:11:10;1.75;;;1.45;;
4986;SDS011;12674;51.500;7.552;2022-08-01T11:13:14;2.13;;;0.90;;
4986;SDS011;12674;51.500;7.552;2022-08-01T11:15:20;1.55;;;1.05;;
4986;SDS011;12674;51.500;7.552;2022-08-01T11:17:31;1.88;;;1.02;;
4986;SDS011;12674;51.500;7.552;2022-08-01T11:22:08;3.15;;;0.90;;
4986;SDS011;12674;51.500;7.552;2022-08-01T11:24:12;0.93;;;0.88;;
4986;SDS011;12674;51.500;7.552;2022-08-01T11:26:17;2.30;;;0.90;;
4986;SDS011;12674;51.500;7.552;2022-08-01T11:28:30;5.03;;;0.98;;
4986;SDS011;12674;51.500;7.552;2022-08-01T11:30:37;1.23;;;0.80;;
4986;SDS011;12674;51.500;7.552;2022-08-01T11:32:45;0.98;;;0.80;;
4986;SDS011;12674;51.500;7.552;2022-08-01T11:35:08;1.52;;;1.10;;
4986;SDS011;12674;51.500;7.552;2022-08-01T11:37:23;4.65;;;1.20;;
4986;SDS011;12674;51.500;7.552;2022-08-01T11:39:32;2.05;;;0.98;;
4986;SDS011;12674;51.500;7.552;2022-08-01T11:41:39;1.27;;;1.17;;
4986;SDS011;12674;51.500;7.552;2022-08-01T11:43:55;3.83;;;1.10;;
4986;SDS011;12674;51.500;7.552;2022-08-01T11:45:59;5.85;;;0.95;;
4986;SDS011;12674;51.500;7.552;2022-08-01T11:48:03;1.02;;;1.00;;
4986;SDS011;12674;51.500;7.552;2022-08-01T11:50:30;1.52;;;0.90;;
4986;SDS011;12674;51.500;7.552;2022-08-01T11:52:37;1.80;;;1.20;;
4986;SDS011;12674;51.500;7.552;2022-08-01T11:54:45;1.73;;;0.80;;
4986;SDS011;12674;51.500;7.552;2022-08-01T11:56:50;1.15;;;1.13;;
4986;SDS011;12674;51.500;7.552;2022-08-01T11:58:58;2.20;;;1.13;;
4986;SDS011;12674;51.500;7.552;2022-08-01T12:01:01;2.47;;;1.23;;
4986;SDS011;12674;51.500;7.552;2022-08-01T12:03:05;1.23;;;0.82;;
4986;SDS011;12674;51.500;7.552;2022-08-01T12:05:09;2.75;;;0.95;;
4986;SDS011;12674;51.500;7.552;2022-08-01T12:07:14;0.93;;;0.70;;
4986;SDS011;12674;51.500;7.552;2022-08-01T12:09:19;0.80;;;0.80;;
4986;SDS011;12674;51.500;7.552;2022-08-01T12:11:24;1.58;;;0.90;;
4986;SDS011;12674;51.500;7.552;2022-08-01T12:13:40;0.90;;;0.80;;
4986;SDS011;12674;51.500;7.552;2022-08-01T12:15:44;0.60;;;0.60;;
4986;SDS011;12674;51.500;7.552;2022-08-01T12:17:55;0.80;;;0.75;;
4986;SDS011;12674;51.500;7.552;2022-08-01T12:20:00;0.85;;;0.80;;
4986;SDS011;12674;51.500;7.552;2022-08-01T12:22:08;0.70;;;0.50;;
4986;SDS011;12674;51.500;7.552;2022-08-01T12:24:13;0.85;;;0.70;;
4986;SDS011;12674;51.500;7.552;2022-08-01T12:26:30;0.80;;;0.65;;
4986;SDS011;12674;51.500;7.552;2022-08-01T12:28:41;0.82;;;0.82;;
4986;SDS011;12674;51.500;7.552;2022-08-01T12:30:46;1.83;;;0.70;;
4986;SDS011;12674;51.500;7.552;2022-08-01T12:32:50;0.85;;;0.80;;
4986;SDS011;12674;51.500;7.552;2022-08-01T12:34:55;0.60;;;0.60;;
4986;SDS011;12674;51.500;7.552;2022-08-01T12:37:00;1.00;;;0.80;;
4986;SDS011;12674;51.500;7.552;2022-08-01T12:39:04;0.60;;;0.50;;
4986;SDS011;12674;51.500;7.552;2022-08-01T12:41:10;0.85;;;0.70;;
4986;SDS011;12674;51.500;7.552;2022-08-01T12:43:16;0.70;;;0.70;;
4986;SDS011;12674;51.500;7.552;2022-08-01T12:45:30;0.70;;;0.70;;
4986;SDS011;12674;51.500;7.552;2022-08-01T12:47:34;0.80;;;0.80;;
4986;SDS011;12674;51.500;7.552;2022-08-01T12:49:38;0.60;;;0.60;;